sensor_id;sensor_type;location;lat;lon;timestamp;temperature;humidity
67641;SHT31;54434;50.096;20.082;2023-07-02T00:01:46;18.51;84.40
67641;SHT31;54434;50.096;20.082;2023-07-02T00:04:23;18.49;84.37
67641;SHT31;54434;50.096;20.082;2023-07-02T00:06:59;18.46;84.31
67641;SHT31;54434;50.096;20.082;2023-07-02T00:09:37;18.42;84.40
67641;SHT31;54434;50.096;20.082;2023-07-02T00:12:15;18.38;84.45
67641;SHT31;54434;50.096;20.082;2023-07-02T00:14:51;18.35;84.42
67641;SHT31;54434;50.096;20.082;2023-07-02T00:17:27;18.31;84.31
67641;SHT31;54434;50.096;20.082;2023-07-02T00:20:05;18.25;84.32
67641;SHT31;54434;50.096;20.082;2023-07-02T00:22:48;18.18;84.46
67641;SHT31;54434;50.096;20.082;2023-07-02T00:25:26;18.13;84.56
67641;SHT31;54434;50.096;20.082;2023-07-02T00:28:03;18.08;84.59
67641;SHT31;54434;50.096;20.082;2023-07-02T00:30:40;18.04;84.59
67641;SHT31;54434;50.096;20.082;2023-07-02T00:33:18;17.99;84.75
67641;SHT31;54434;50.096;20.082;2023-07-02T00:35:55;17.97;84.93
67641;SHT31;54434;50.096;20.082;2023-07-02T00:38:32;17.95;85.01
67641;SHT31;54434;50.096;20.082;2023-07-02T00:41:09;17.93;85.14
67641;SHT31;54434;50.096;20.082;2023-07-02T00:43:46;17.93;85.22
67641;SHT31;54434;50.096;20.082;2023-07-02T00:46:27;17.93;85.33
67641;SHT31;54434;50.096;20.082;2023-07-02T00:49:05;17.92;85.39
67641;SHT31;54434;50.096;20.082;2023-07-02T00:51:42;17.92;85.48
67641;SHT31;54434;50.096;20.082;2023-07-02T00:54:19;17.91;85.53
67641;SHT31;54434;50.096;20.082;2023-07-02T00:56:56;17.89;85.66
67641;SHT31;54434;50.096;20.082;2023-07-02T00:59:34;17.88;85.73
67641;SHT31;54434;50.096;20.082;2023-07-02T01:02:11;17.86;85.75
67641;SHT31;54434;50.096;20.082;2023-07-02T01:04:48;17.86;85.76
67641;SHT31;54434;50.096;20.082;2023-07-02T01:07:29;17.84;85.75
67641;SHT31;54434;50.096;20.082;2023-07-02T01:10:08;17.84;85.82
67641;SHT31;54434;50.096;20.082;2023-07-02T01:12:44;17.83;85.89
67641;SHT31;54434;50.096;20.082;2023-07-02T01:15:23;17.83;85.80
67641;SHT31;54434;50.096;20.082;2023-07-02T01:18:00;17.82;85.80
67641;SHT31;54434;50.096;20.082;2023-07-02T01:20:38;17.82;85.81
67641;SHT31;54434;50.096;20.082;2023-07-02T01:23:16;17.81;85.85
67641;SHT31;54434;50.096;20.082;2023-07-02T01:25:54;17.81;85.87
67641;SHT31;54434;50.096;20.082;2023-07-02T01:28:37;17.81;85.86
67641;SHT31;54434;50.096;20.082;2023-07-02T01:31:15;17.80;85.92
67641;SHT31;54434;50.096;20.082;2023-07-02T01:33:57;17.78;85.96
67641;SHT31;54434;50.096;20.082;2023-07-02T01:36:36;17.76;86.00
67641;SHT31;54434;50.096;20.082;2023-07-02T01:39:14;17.74;85.99
67641;SHT31;54434;50.096;20.082;2023-07-02T01:41:53;17.73;85.99
67641;SHT31;54434;50.096;20.082;2023-07-02T01:44:42;17.71;86.07
67641;SHT31;54434;50.096;20.082;2023-07-02T01:47:20;17.70;86.19
67641;SHT31;54434;50.096;20.082;2023-07-02T01:49:57;17.70;86.32
67641;SHT31;54434;50.096;20.082;2023-07-02T01:52:35;17.69;86.39
67641;SHT31;54434;50.096;20.082;2023-07-02T01:55:11;17.69;86.48
67641;SHT31;54434;50.096;20.082;2023-07-02T01:57:49;17.69;86.50
67641;SHT31;54434;50.096;20.082;2023-07-02T02:00:26;17.69;86.55
67641;SHT31;54434;50.096;20.082;2023-07-02T02:03:02;17.68;86.60
67641;SHT31;54434;50.096;20.082;2023-07-02T02:05:40;17.69;86.63
67641;SHT31;54434;50.096;20.082;2023-07-02T02:08:17;17.71;86.71
67641;SHT31;54434;50.096;20.082;2023-07-02T02:10:53;17.71;86.78
67641;SHT31;54434;50.096;20.082;2023-07-02T02:13:31;17.72;86.74
67641;SHT31;54434;50.096;20.082;2023-07-02T02:16:07;17.72;86.70
67641;SHT31;54434;50.096;20.082;2023-07-02T02:18:44;17.75;86.78
67641;SHT31;54434;50.096;20.082;2023-07-02T02:21:24;17.77;86.81
67641;SHT31;54434;50.096;20.082;2023-07-02T02:24:00;17.78;86.80
67641;SHT31;54434;50.096;20.082;2023-07-02T02:26:38;17.80;86.79
67641;SHT31;54434;50.096;20.082;2023-07-02T02:29:14;17.81;86.81
67641;SHT31;54434;50.096;20.082;2023-07-02T02:31:51;17.85;86.90
67641;SHT31;54434;50.096;20.082;2023-07-02T02:34:28;17.88;86.92
67641;SHT31;54434;50.096;20.082;2023-07-02T02:37:05;17.89;86.91
67641;SHT31;54434;50.096;20.082;2023-07-02T02:39:42;17.92;86.95
67641;SHT31;54434;50.096;20.082;2023-07-02T02:42:19;17.94;86.97
67641;SHT31;54434;50.096;20.082;2023-07-02T02:44:55;17.96;86.98
67641;SHT31;54434;50.096;20.082;2023-07-02T02:47:32;17.98;86.96
67641;SHT31;54434;50.096;20.082;2023-07-02T02:50:09;18.00;86.94
67641;SHT31;54434;50.096;20.082;2023-07-02T02:52:48;18.04;86.97
67641;SHT31;54434;50.096;20.082;2023-07-02T02:55:25;18.07;86.92
67641;SHT31;54434;50.096;20.082;2023-07-02T02:58:01;18.09;86.99
67641;SHT31;54434;50.096;20.082;2023-07-02T03:00:38;18.11;86.95
67641;SHT31;54434;50.096;20.082;2023-07-02T03:03:18;18.14;87.02
67641;SHT31;54434;50.096;20.082;2023-07-02T03:05:56;18.17;87.04
67641;SHT31;54434;50.096;20.082;2023-07-02T03:08:33;18.20;87.00
67641;SHT31;54434;50.096;20.082;2023-07-02T03:11:09;18.23;86.98
67641;SHT31;54434;50.096;20.082;2023-07-02T03:13:46;18.26;86.91
67641;SHT31;54434;50.096;20.082;2023-07-02T03:16:22;18.28;86.84
67641;SHT31;54434;50.096;20.082;2023-07-02T03:18:59;18.30;86.72
67641;SHT31;54434;50.096;20.082;2023-07-02T03:21:35;18.34;86.67
67641;SHT31;54434;50.096;20.082;2023-07-02T03:24:12;18.38;86.50
67641;SHT31;54434;50.096;20.082;2023-07-02T03:26:49;18.40;86.35
67641;SHT31;54434;50.096;20.082;2023-07-02T03:29:25;18.49;86.26
67641;SHT31;54434;50.096;20.082;2023-07-02T03:32:02;18.59;86.07
67641;SHT31;54434;50.096;20.082;2023-07-02T03:34:40;18.65;85.86
67641;SHT31;54434;50.096;20.082;2023-07-02T03:37:16;18.73;85.69
67641;SHT31;54434;50.096;20.082;2023-07-02T03:39:53;18.92;85.54
67641;SHT31;54434;50.096;20.082;2023-07-02T03:42:30;19.25;85.11
67641;SHT31;54434;50.096;20.082;2023-07-02T03:45:08;19.69;84.30
67641;SHT31;54434;50.096;20.082;2023-07-02T03:47:46;20.37;83.23
67641;SHT31;54434;50.096;20.082;2023-07-02T03:50:23;21.17;81.74
67641;SHT31;54434;50.096;20.082;2023-07-02T03:52:59;21.94;79.86
67641;SHT31;54434;50.096;20.082;2023-07-02T03:55:36;22.65;77.85
67641;SHT31;54434;50.096;20.082;2023-07-02T03:58:12;23.38;75.98
67641;SHT31;54434;50.096;20.082;2023-07-02T04:00:49;24.00;74.32
67641;SHT31;54434;50.096;20.082;2023-07-02T04:03:26;24.57;72.74
67641;SHT31;54434;50.096;20.082;2023-07-02T04:06:02;25.05;71.16
67641;SHT31;54434;50.096;20.082;2023-07-02T04:08:39;25.36;69.98
67641;SHT31;54434;50.096;20.082;2023-07-02T04:11:16;25.65;69.13
67641;SHT31;54434;50.096;20.082;2023-07-02T04:13:53;26.04;68.09
67641;SHT31;54434;50.096;20.082;2023-07-02T04:16:29;26.44;66.85
67641;SHT31;54434;50.096;20.082;2023-07-02T04:19:06;26.73;65.86
67641;SHT31;54434;50.096;20.082;2023-07-02T04:21:43;27.03;64.78
67641;SHT31;54434;50.096;20.082;2023-07-02T04:24:20;27.28;63.78
67641;SHT31;54434;50.096;20.082;2023-07-02T04:26:58;27.56;63.19
67641;SHT31;54434;50.096;20.082;2023-07-02T04:29:54;27.90;61.85
67641;SHT31;54434;50.096;20.082;2023-07-02T04:32:31;28.23;61.20
67641;SHT31;54434;50.096;20.082;2023-07-02T04:35:09;28.46;59.89
67641;SHT31;54434;50.096;20.082;2023-07-02T04:37:46;28.52;59.36
67641;SHT31;54434;50.096;20.082;2023-07-02T04:40:23;28.66;58.99
67641;SHT31;54434;50.096;20.082;2023-07-02T04:42:59;28.83;58.12
67641;SHT31;54434;50.096;20.082;2023-07-02T04:45:37;28.75;57.84
67641;SHT31;54434;50.096;20.082;2023-07-02T04:48:16;28.93;57.79
67641;SHT31;54434;50.096;20.082;2023-07-02T04:50:53;29.11;56.91
67641;SHT31;54434;50.096;20.082;2023-07-02T04:53:29;29.06;56.74
67641;SHT31;54434;50.096;20.082;2023-07-02T04:56:06;29.11;56.98
67641;SHT31;54434;50.096;20.082;2023-07-02T04:58:43;29.24;56.44
67641;SHT31;54434;50.096;20.082;2023-07-02T05:01:19;29.16;55.91
67641;SHT31;54434;50.096;20.082;2023-07-02T05:03:56;29.03;56.03
67641;SHT31;54434;50.096;20.082;2023-07-02T05:06:33;29.05;55.81
67641;SHT31;54434;50.096;20.082;2023-07-02T05:09:09;28.96;55.48
67641;SHT31;54434;50.096;20.082;2023-07-02T05:11:45;28.90;55.80
67641;SHT31;54434;50.096;20.082;2023-07-02T05:14:22;29.03;55.45
67641;SHT31;54434;50.096;20.082;2023-07-02T05:16:58;29.09;55.66
67641;SHT31;54434;50.096;20.082;2023-07-02T05:19:36;29.30;55.43
67641;SHT31;54434;50.096;20.082;2023-07-02T05:22:14;29.45;55.03
67641;SHT31;54434;50.096;20.082;2023-07-02T05:24:51;29.69;54.86
67641;SHT31;54434;50.096;20.082;2023-07-02T05:27:27;29.90;53.52
67641;SHT31;54434;50.096;20.082;2023-07-02T05:30:05;29.97;53.13
67641;SHT31;54434;50.096;20.082;2023-07-02T05:32:44;30.31;51.86
67641;SHT31;54434;50.096;20.082;2023-07-02T05:35:21;30.50;51.39
67641;SHT31;54434;50.096;20.082;2023-07-02T05:37:57;30.77;50.90
67641;SHT31;54434;50.096;20.082;2023-07-02T05:40:34;30.97;50.26
67641;SHT31;54434;50.096;20.082;2023-07-02T05:43:11;31.19;50.25
67641;SHT31;54434;50.096;20.082;2023-07-02T05:45:47;31.38;49.60
67641;SHT31;54434;50.096;20.082;2023-07-02T05:48:25;31.45;49.27
67641;SHT31;54434;50.096;20.082;2023-07-02T05:51:02;31.50;48.62
67641;SHT31;54434;50.096;20.082;2023-07-02T05:53:39;31.80;48.03
67641;SHT31;54434;50.096;20.082;2023-07-02T05:56:15;31.84;47.55
67641;SHT31;54434;50.096;20.082;2023-07-02T05:58:52;31.33;48.19
67641;SHT31;54434;50.096;20.082;2023-07-02T06:01:29;31.01;48.33
67641;SHT31;54434;50.096;20.082;2023-07-02T06:04:05;30.59;49.04
67641;SHT31;54434;50.096;20.082;2023-07-02T06:06:42;30.19;49.18
67641;SHT31;54434;50.096;20.082;2023-07-02T06:09:18;30.33;49.59
67641;SHT31;54434;50.096;20.082;2023-07-02T06:11:55;30.69;48.80
67641;SHT31;54434;50.096;20.082;2023-07-02T06:14:31;30.78;48.21
67641;SHT31;54434;50.096;20.082;2023-07-02T06:17:08;30.83;47.63
67641;SHT31;54434;50.096;20.082;2023-07-02T06:19:45;30.83;47.88
67641;SHT31;54434;50.096;20.082;2023-07-02T06:22:22;30.97;46.98
67641;SHT31;54434;50.096;20.082;2023-07-02T06:24:58;30.93;46.39
67641;SHT31;54434;50.096;20.082;2023-07-02T06:27:36;30.57;45.99
67641;SHT31;54434;50.096;20.082;2023-07-02T06:30:14;30.33;46.29
67641;SHT31;54434;50.096;20.082;2023-07-02T06:32:50;30.07;45.79
67641;SHT31;54434;50.096;20.082;2023-07-02T06:35:28;29.78;45.79
67641;SHT31;54434;50.096;20.082;2023-07-02T06:38:04;29.86;46.14
67641;SHT31;54434;50.096;20.082;2023-07-02T06:40:41;30.20;46.07
67641;SHT31;54434;50.096;20.082;2023-07-02T06:43:18;30.51;45.34
67641;SHT31;54434;50.096;20.082;2023-07-02T06:45:55;30.52;45.15
67641;SHT31;54434;50.096;20.082;2023-07-02T06:48:31;30.69;45.61
67641;SHT31;54434;50.096;20.082;2023-07-02T06:51:08;30.61;44.73
67641;SHT31;54434;50.096;20.082;2023-07-02T06:53:47;30.52;45.97
67641;SHT31;54434;50.096;20.082;2023-07-02T06:56:23;30.61;44.88
67641;SHT31;54434;50.096;20.082;2023-07-02T06:59:00;30.64;45.04
67641;SHT31;54434;50.096;20.082;2023-07-02T07:01:37;30.82;45.42
67641;SHT31;54434;50.096;20.082;2023-07-02T07:04:13;30.93;45.62
67641;SHT31;54434;50.096;20.082;2023-07-02T07:06:50;31.08;44.74
67641;SHT31;54434;50.096;20.082;2023-07-02T07:09:28;31.18;44.91
67641;SHT31;54434;50.096;20.082;2023-07-02T07:12:06;31.26;45.23
67641;SHT31;54434;50.096;20.082;2023-07-02T07:14:43;31.06;44.96
67641;SHT31;54434;50.096;20.082;2023-07-02T07:17:20;30.88;45.44
67641;SHT31;54434;50.096;20.082;2023-07-02T07:19:56;30.78;45.16
67641;SHT31;54434;50.096;20.082;2023-07-02T07:22:34;30.65;45.46
67641;SHT31;54434;50.096;20.082;2023-07-02T07:25:11;30.39;45.58
67641;SHT31;54434;50.096;20.082;2023-07-02T07:27:51;30.06;46.07
67641;SHT31;54434;50.096;20.082;2023-07-02T07:30:28;29.80;46.49
67641;SHT31;54434;50.096;20.082;2023-07-02T07:33:04;29.32;45.55
67641;SHT31;54434;50.096;20.082;2023-07-02T07:35:41;28.88;46.32
67641;SHT31;54434;50.096;20.082;2023-07-02T07:38:18;28.50;46.70
67641;SHT31;54434;50.096;20.082;2023-07-02T07:40:55;28.05;47.31
67641;SHT31;54434;50.096;20.082;2023-07-02T07:43:31;27.66;47.71
67641;SHT31;54434;50.096;20.082;2023-07-02T07:46:08;27.30;48.34
67641;SHT31;54434;50.096;20.082;2023-07-02T07:48:45;27.04;49.62
67641;SHT31;54434;50.096;20.082;2023-07-02T07:51:21;26.85;50.26
67641;SHT31;54434;50.096;20.082;2023-07-02T07:54:01;26.68;50.79
67641;SHT31;54434;50.096;20.082;2023-07-02T07:56:38;26.52;51.00
67641;SHT31;54434;50.096;20.082;2023-07-02T07:59:15;26.46;51.60
67641;SHT31;54434;50.096;20.082;2023-07-02T08:01:52;26.42;51.62
67641;SHT31;54434;50.096;20.082;2023-07-02T08:04:28;26.38;51.84
67641;SHT31;54434;50.096;20.082;2023-07-02T08:07:06;26.20;52.26
67641;SHT31;54434;50.096;20.082;2023-07-02T08:09:42;26.16;52.77
67641;SHT31;54434;50.096;20.082;2023-07-02T08:12:21;26.19;52.83
67641;SHT31;54434;50.096;20.082;2023-07-02T08:14:58;26.25;52.89
67641;SHT31;54434;50.096;20.082;2023-07-02T08:17:35;26.34;52.56
67641;SHT31;54434;50.096;20.082;2023-07-02T08:20:13;26.46;52.36
67641;SHT31;54434;50.096;20.082;2023-07-02T08:22:49;26.63;52.22
67641;SHT31;54434;50.096;20.082;2023-07-02T08:25:26;26.80;51.99
67641;SHT31;54434;50.096;20.082;2023-07-02T08:28:32;26.96;51.86
67641;SHT31;54434;50.096;20.082;2023-07-02T08:31:10;27.25;51.66
67641;SHT31;54434;50.096;20.082;2023-07-02T08:33:46;27.50;51.50
67641;SHT31;54434;50.096;20.082;2023-07-02T08:36:24;27.83;51.40
67641;SHT31;54434;50.096;20.082;2023-07-02T08:39:08;27.96;49.70
67641;SHT31;54434;50.096;20.082;2023-07-02T08:41:46;27.89;50.27
67641;SHT31;54434;50.096;20.082;2023-07-02T08:44:23;28.03;50.14
67641;SHT31;54434;50.096;20.082;2023-07-02T08:47:01;27.96;49.96
67641;SHT31;54434;50.096;20.082;2023-07-02T08:49:38;27.79;50.11
67641;SHT31;54434;50.096;20.082;2023-07-02T08:52:16;27.66;50.21
67641;SHT31;54434;50.096;20.082;2023-07-02T08:54:52;27.55;50.75
67641;SHT31;54434;50.096;20.082;2023-07-02T08:57:29;27.46;50.41
67641;SHT31;54434;50.096;20.082;2023-07-02T09:00:09;27.30;50.82
67641;SHT31;54434;50.096;20.082;2023-07-02T09:02:48;27.22;51.40
67641;SHT31;54434;50.096;20.082;2023-07-02T09:05:23;27.15;51.46
67641;SHT31;54434;50.096;20.082;2023-07-02T09:08:02;27.06;51.11
67641;SHT31;54434;50.096;20.082;2023-07-02T09:10:38;27.14;51.56
67641;SHT31;54434;50.096;20.082;2023-07-02T09:13:15;27.11;51.73
67641;SHT31;54434;50.096;20.082;2023-07-02T09:15:51;27.10;52.20
67641;SHT31;54434;50.096;20.082;2023-07-02T09:18:28;27.25;52.52
67641;SHT31;54434;50.096;20.082;2023-07-02T09:21:04;27.48;51.74
67641;SHT31;54434;50.096;20.082;2023-07-02T09:23:41;27.60;49.28
67641;SHT31;54434;50.096;20.082;2023-07-02T09:26:22;27.70;49.42
67641;SHT31;54434;50.096;20.082;2023-07-02T09:29:03;27.68;49.06
67641;SHT31;54434;50.096;20.082;2023-07-02T09:33:48;27.41;49.73
67641;SHT31;54434;50.096;20.082;2023-07-02T09:36:34;27.48;49.98
67641;SHT31;54434;50.096;20.082;2023-07-02T09:39:14;27.66;50.76
67641;SHT31;54434;50.096;20.082;2023-07-02T09:41:53;27.80;50.24
67641;SHT31;54434;50.096;20.082;2023-07-02T09:44:32;27.86;50.03
67641;SHT31;54434;50.096;20.082;2023-07-02T09:47:10;27.63;49.97
67641;SHT31;54434;50.096;20.082;2023-07-02T09:49:52;27.44;51.02
67641;SHT31;54434;50.096;20.082;2023-07-02T09:52:35;27.17;51.12
67641;SHT31;54434;50.096;20.082;2023-07-02T09:55:13;26.97;51.61
67641;SHT31;54434;50.096;20.082;2023-07-02T09:57:50;26.82;51.67
67641;SHT31;54434;50.096;20.082;2023-07-02T10:00:27;26.72;52.18
67641;SHT31;54434;50.096;20.082;2023-07-02T10:03:04;26.59;52.21
67641;SHT31;54434;50.096;20.082;2023-07-02T10:05:41;26.46;52.90
67641;SHT31;54434;50.096;20.082;2023-07-02T10:08:17;26.36;53.38
67641;SHT31;54434;50.096;20.082;2023-07-02T10:11:09;26.30;53.61
67641;SHT31;54434;50.096;20.082;2023-07-02T10:13:45;26.31;53.25
67641;SHT31;54434;50.096;20.082;2023-07-02T10:16:32;26.31;53.36
67641;SHT31;54434;50.096;20.082;2023-07-02T10:19:21;26.33;53.49
67641;SHT31;54434;50.096;20.082;2023-07-02T10:22:04;26.29;53.25
67641;SHT31;54434;50.096;20.082;2023-07-02T10:24:49;26.17;52.93
67641;SHT31;54434;50.096;20.082;2023-07-02T10:27:36;25.92;53.39
67641;SHT31;54434;50.096;20.082;2023-07-02T10:30:15;25.62;53.05
67641;SHT31;54434;50.096;20.082;2023-07-02T10:33:13;25.31;53.29
67641;SHT31;54434;50.096;20.082;2023-07-02T10:35:51;25.08;53.78
67641;SHT31;54434;50.096;20.082;2023-07-02T10:38:27;24.91;54.10
67641;SHT31;54434;50.096;20.082;2023-07-02T10:41:04;24.84;54.60
67641;SHT31;54434;50.096;20.082;2023-07-02T10:43:40;25.01;54.95
67641;SHT31;54434;50.096;20.082;2023-07-02T10:46:21;25.33;55.25
67641;SHT31;54434;50.096;20.082;2023-07-02T10:48:57;25.48;54.63
67641;SHT31;54434;50.096;20.082;2023-07-02T10:51:34;25.69;55.95
67641;SHT31;54434;50.096;20.082;2023-07-02T10:54:11;25.89;55.32
67641;SHT31;54434;50.096;20.082;2023-07-02T10:56:49;25.68;54.26
67641;SHT31;54434;50.096;20.082;2023-07-02T10:59:31;25.68;55.17
67641;SHT31;54434;50.096;20.082;2023-07-02T11:02:09;25.94;55.54
67641;SHT31;54434;50.096;20.082;2023-07-02T11:04:45;26.15;54.99
67641;SHT31;54434;50.096;20.082;2023-07-02T11:07:25;26.26;54.25
67641;SHT31;54434;50.096;20.082;2023-07-02T11:10:01;26.28;54.75
67641;SHT31;54434;50.096;20.082;2023-07-02T11:12:40;26.13;54.18
67641;SHT31;54434;50.096;20.082;2023-07-02T11:15:17;25.90;54.66
67641;SHT31;54434;50.096;20.082;2023-07-02T11:17:55;25.84;55.45
67641;SHT31;54434;50.096;20.082;2023-07-02T11:20:41;25.88;55.78
67641;SHT31;54434;50.096;20.082;2023-07-02T11:23:20;25.90;55.14
67641;SHT31;54434;50.096;20.082;2023-07-02T11:25:59;26.12;56.32
67641;SHT31;54434;50.096;20.082;2023-07-02T11:28:47;26.35;56.11
67641;SHT31;54434;50.096;20.082;2023-07-02T11:31:28;26.43;55.28
67641;SHT31;54434;50.096;20.082;2023-07-02T11:34:12;26.41;56.17
67641;SHT31;54434;50.096;20.082;2023-07-02T11:36:52;26.48;55.73
67641;SHT31;54434;50.096;20.082;2023-07-02T11:39:28;26.42;54.92
67641;SHT31;54434;50.096;20.082;2023-07-02T11:42:06;26.36;55.12
67641;SHT31;54434;50.096;20.082;2023-07-02T11:44:43;26.29;54.51
67641;SHT31;54434;50.096;20.082;2023-07-02T11:47:19;26.06;54.49
67641;SHT31;54434;50.096;20.082;2023-07-02T11:49:57;25.87;54.78
67641;SHT31;54434;50.096;20.082;2023-07-02T11:52:51;25.72;55.88
67641;SHT31;54434;50.096;20.082;2023-07-02T11:55:28;25.61;55.61
67641;SHT31;54434;50.096;20.082;2023-07-02T11:58:04;25.60;56.06
67641;SHT31;54434;50.096;20.082;2023-07-02T12:00:41;25.58;56.13
67641;SHT31;54434;50.096;20.082;2023-07-02T12:03:18;25.39;55.66
67641;SHT31;54434;50.096;20.082;2023-07-02T12:05:55;25.27;55.93
67641;SHT31;54434;50.096;20.082;2023-07-02T12:08:32;25.26;56.72
67641;SHT31;54434;50.096;20.082;2023-07-02T12:11:09;25.35;57.14
67641;SHT31;54434;50.096;20.082;2023-07-02T12:13:48;25.43;56.91
67641;SHT31;54434;50.096;20.082;2023-07-02T12:16:24;25.56;57.21
67641;SHT31;54434;50.096;20.082;2023-07-02T12:19:01;25.65;56.74
67641;SHT31;54434;50.096;20.082;2023-07-02T12:21:37;25.73;56.99
67641;SHT31;54434;50.096;20.082;2023-07-02T12:24:14;25.85;55.68
67641;SHT31;54434;50.096;20.082;2023-07-02T12:26:51;25.94;54.93
67641;SHT31;54434;50.096;20.082;2023-07-02T12:29:27;25.96;55.56
67641;SHT31;54434;50.096;20.082;2023-07-02T12:32:05;25.94;55.87
67641;SHT31;54434;50.096;20.082;2023-07-02T12:34:42;26.02;55.60
67641;SHT31;54434;50.096;20.082;2023-07-02T12:37:19;26.08;55.28
67641;SHT31;54434;50.096;20.082;2023-07-02T12:39:55;26.08;54.02
67641;SHT31;54434;50.096;20.082;2023-07-02T12:42:33;26.09;54.31
67641;SHT31;54434;50.096;20.082;2023-07-02T12:45:12;26.14;53.93
67641;SHT31;54434;50.096;20.082;2023-07-02T12:47:54;26.25;53.74
67641;SHT31;54434;50.096;20.082;2023-07-02T12:50:31;26.31;52.99
67641;SHT31;54434;50.096;20.082;2023-07-02T12:53:10;26.35;53.78
67641;SHT31;54434;50.096;20.082;2023-07-02T12:55:46;26.39;53.80
67641;SHT31;54434;50.096;20.082;2023-07-02T12:58:23;26.41;53.57
67641;SHT31;54434;50.096;20.082;2023-07-02T13:01:00;26.33;52.77
67641;SHT31;54434;50.096;20.082;2023-07-02T13:03:37;26.28;52.64
67641;SHT31;54434;50.096;20.082;2023-07-02T13:06:20;26.20;52.99
67641;SHT31;54434;50.096;20.082;2023-07-02T13:08:57;26.10;53.16
67641;SHT31;54434;50.096;20.082;2023-07-02T13:11:34;26.05;53.33
67641;SHT31;54434;50.096;20.082;2023-07-02T13:14:10;26.06;53.54
67641;SHT31;54434;50.096;20.082;2023-07-02T13:16:47;26.03;53.27
67641;SHT31;54434;50.096;20.082;2023-07-02T13:19:23;25.94;53.50
67641;SHT31;54434;50.096;20.082;2023-07-02T13:22:00;25.92;54.11
67641;SHT31;54434;50.096;20.082;2023-07-02T13:24:38;25.87;53.01
67641;SHT31;54434;50.096;20.082;2023-07-02T13:27:16;25.87;54.57
67641;SHT31;54434;50.096;20.082;2023-07-02T13:29:54;25.97;53.83
67641;SHT31;54434;50.096;20.082;2023-07-02T13:32:31;25.91;53.65
67641;SHT31;54434;50.096;20.082;2023-07-02T13:35:09;25.78;54.21
67641;SHT31;54434;50.096;20.082;2023-07-02T13:37:46;25.66;54.62
67641;SHT31;54434;50.096;20.082;2023-07-02T13:40:22;25.59;55.07
67641;SHT31;54434;50.096;20.082;2023-07-02T13:42:59;25.50;54.91
67641;SHT31;54434;50.096;20.082;2023-07-02T13:45:36;25.49;55.59
67641;SHT31;54434;50.096;20.082;2023-07-02T13:48:12;25.57;55.85
67641;SHT31;54434;50.096;20.082;2023-07-02T13:50:49;25.56;55.66
67641;SHT31;54434;50.096;20.082;2023-07-02T13:53:26;25.71;56.13
67641;SHT31;54434;50.096;20.082;2023-07-02T13:56:03;25.86;55.04
67641;SHT31;54434;50.096;20.082;2023-07-02T13:59:00;25.48;52.33
67641;SHT31;54434;50.096;20.082;2023-07-02T14:01:38;24.55;53.03
67641;SHT31;54434;50.096;20.082;2023-07-02T14:04:16;24.00;54.37
67641;SHT31;54434;50.096;20.082;2023-07-02T14:06:53;23.50;54.92
67641;SHT31;54434;50.096;20.082;2023-07-02T14:09:30;23.08;55.98
67641;SHT31;54434;50.096;20.082;2023-07-02T14:12:08;22.88;57.03
67641;SHT31;54434;50.096;20.082;2023-07-02T14:14:45;22.76;56.94
67641;SHT31;54434;50.096;20.082;2023-07-02T14:17:22;22.61;56.75
67641;SHT31;54434;50.096;20.082;2023-07-02T14:19:59;22.49;56.96
67641;SHT31;54434;50.096;20.082;2023-07-02T14:22:37;22.41;57.15
67641;SHT31;54434;50.096;20.082;2023-07-02T14:25:14;22.32;57.35
67641;SHT31;54434;50.096;20.082;2023-07-02T14:28:07;22.18;57.44
67641;SHT31;54434;50.096;20.082;2023-07-02T14:30:44;22.01;57.35
67641;SHT31;54434;50.096;20.082;2023-07-02T14:33:20;21.81;57.80
67641;SHT31;54434;50.096;20.082;2023-07-02T14:35:57;21.62;58.19
67641;SHT31;54434;50.096;20.082;2023-07-02T14:38:34;21.47;58.30
67641;SHT31;54434;50.096;20.082;2023-07-02T14:41:11;21.38;58.92
67641;SHT31;54434;50.096;20.082;2023-07-02T14:43:48;21.32;59.24
67641;SHT31;54434;50.096;20.082;2023-07-02T14:46:24;21.31;59.14
67641;SHT31;54434;50.096;20.082;2023-07-02T14:49:01;21.33;58.79
67641;SHT31;54434;50.096;20.082;2023-07-02T14:51:37;21.36;58.57
67641;SHT31;54434;50.096;20.082;2023-07-02T14:54:14;21.41;58.64
67641;SHT31;54434;50.096;20.082;2023-07-02T14:56:52;21.45;58.71
67641;SHT31;54434;50.096;20.082;2023-07-02T14:59:31;21.49;58.24
67641;SHT31;54434;50.096;20.082;2023-07-02T15:02:08;21.51;58.79
67641;SHT31;54434;50.096;20.082;2023-07-02T15:04:45;21.55;58.80
67641;SHT31;54434;50.096;20.082;2023-07-02T15:07:22;21.58;58.68
67641;SHT31;54434;50.096;20.082;2023-07-02T15:09:59;21.62;58.98
67641;SHT31;54434;50.096;20.082;2023-07-02T15:12:35;21.63;58.95
67641;SHT31;54434;50.096;20.082;2023-07-02T15:15:12;21.61;59.28
67641;SHT31;54434;50.096;20.082;2023-07-02T15:17:49;21.54;59.20
67641;SHT31;54434;50.096;20.082;2023-07-02T15:20:27;21.48;58.65
67641;SHT31;54434;50.096;20.082;2023-07-02T15:23:03;21.50;59.06
67641;SHT31;54434;50.096;20.082;2023-07-02T15:25:40;21.52;58.58
67641;SHT31;54434;50.096;20.082;2023-07-02T15:28:23;21.54;57.50
67641;SHT31;54434;50.096;20.082;2023-07-02T15:31:04;21.56;57.52
67641;SHT31;54434;50.096;20.082;2023-07-02T15:33:43;21.58;57.24
67641;SHT31;54434;50.096;20.082;2023-07-02T15:36:20;21.60;56.89
67641;SHT31;54434;50.096;20.082;2023-07-02T15:38:56;21.64;56.82
67641;SHT31;54434;50.096;20.082;2023-07-02T15:41:33;21.68;56.84
67641;SHT31;54434;50.096;20.082;2023-07-02T15:44:12;21.77;57.18
67641;SHT31;54434;50.096;20.082;2023-07-02T15:46:49;21.83;57.13
67641;SHT31;54434;50.096;20.082;2023-07-02T15:49:26;21.94;56.90
67641;SHT31;54434;50.096;20.082;2023-07-02T15:52:03;22.09;56.78
67641;SHT31;54434;50.096;20.082;2023-07-02T15:54:40;22.31;56.56
67641;SHT31;54434;50.096;20.082;2023-07-02T15:57:17;22.44;56.01
67641;SHT31;54434;50.096;20.082;2023-07-02T15:59:54;22.47;56.03
67641;SHT31;54434;50.096;20.082;2023-07-02T16:02:31;22.43;55.94
67641;SHT31;54434;50.096;20.082;2023-07-02T16:05:09;22.44;56.27
67641;SHT31;54434;50.096;20.082;2023-07-02T16:07:46;22.56;56.15
67641;SHT31;54434;50.096;20.082;2023-07-02T16:10:22;22.70;55.96
67641;SHT31;54434;50.096;20.082;2023-07-02T16:12:59;22.83;55.35
67641;SHT31;54434;50.096;20.082;2023-07-02T16:15:38;22.90;55.60
67641;SHT31;54434;50.096;20.082;2023-07-02T16:18:16;22.93;54.92
67641;SHT31;54434;50.096;20.082;2023-07-02T16:21:00;22.97;55.47
67641;SHT31;54434;50.096;20.082;2023-07-02T16:23:38;22.98;55.20